Time;durP1;ratioP1;P1;durP2;ratioP2;P2;SDS_P1;SDS_P2;PMS_P1;PMS_P2;Temp;Humidity;BMP_temperature;BMP_pressure;BME280_temperature;BME280_humidity;BME280_pressure;Samples;Min_cycle;Max_cycle;Signal;HPM_P1;HPM_P2
2021/08/31 00:01:34;;;;;;;6.82;3.00;;;21.10;97.20;;;;;;4971891;28;20022;-82
2021/08/31 00:03:59;;;;;;;5.00;2.67;;;21.00;97.20;;;;;;4972449;28;20038;-87
2021/08/31 00:06:25;;;;;;;7.68;3.15;;;21.00;97.20;;;;;;4971665;28;20066;-90
2021/08/31 00:08:51;;;;;;;6.85;3.22;;;21.00;97.20;;;;;;4971822;28;20510;-88
2021/08/31 00:11:16;;;;;;;7.60;2.83;;;21.00;97.20;;;;;;4971670;28;20035;-86
2021/08/31 00:13:42;;;;;;;5.90;2.65;;;21.00;97.20;;;;;;4972222;28;20062;-74
2021/08/31 00:16:08;;;;;;;6.50;2.80;;;21.00;97.20;;;;;;4972504;28;20110;-81
2021/08/31 00:18:33;;;;;;;6.47;2.53;;;21.00;97.20;;;;;;4972421;28;20038;-87
2021/08/31 00:20:59;;;;;;;6.30;2.60;;;21.00;97.20;;;;;;4971847;28;20538;-82
2021/08/31 00:23:24;;;;;;;6.35;2.95;;;21.00;97.20;;;;;;4972516;28;20031;-85
2021/08/31 00:25:52;;;;;;;9.63;3.15;;;21.00;97.20;;;;;;4975759;28;20066;-85
2021/08/31 00:28:19;;;;;;;5.32;2.90;;;21.00;97.20;;;;;;4958825;28;20058;-83
2021/08/31 00:30:45;;;;;;;6.07;3.00;;;21.00;97.20;;;;;;4958461;28;20030;-86
2021/08/31 00:33:11;;;;;;;5.05;3.00;;;21.00;97.20;;;;;;4975940;28;20031;-77
2021/08/31 00:35:36;;;;;;;6.93;2.80;;;21.00;97.10;;;;;;4975556;28;20031;-83
2021/08/31 00:38:02;;;;;;;6.30;3.13;;;21.00;97.10;;;;;;4975378;28;20488;-81
2021/08/31 00:40:28;;;;;;;4.07;2.30;;;21.00;97.10;;;;;;4975938;28;20030;-84
2021/08/31 00:42:54;;;;;;;5.63;2.88;;;21.00;97.20;;;;;;4975329;28;20035;-82
2021/08/31 00:45:20;;;;;;;6.50;3.33;;;21.00;97.10;;;;;;4975684;28;20041;-82
2021/08/31 00:47:45;;;;;;;5.55;3.17;;;21.00;97.10;;;;;;4975297;28;20023;-89
2021/08/31 00:50:13;;;;;;;8.18;2.75;;;21.00;97.20;;;;;;4975292;28;20041;-78
2021/08/31 00:52:40;;;;;;;6.63;3.15;;;21.00;97.20;;;;;;4975848;28;20023;-82
2021/08/31 00:55:07;;;;;;;7.90;3.25;;;21.00;97.20;;;;;;4975651;28;20023;-75
2021/08/31 00:57:34;;;;;;;6.95;2.83;;;20.90;97.10;;;;;;4975371;28;20074;-77
2021/08/31 01:00:00;;;;;;;7.00;2.92;;;20.90;97.10;;;;;;4975244;28;20027;-78
2021/08/31 01:02:26;;;;;;;6.28;2.78;;;21.00;97.10;;;;;;4975393;28;20030;-80
2021/08/31 01:04:52;;;;;;;6.55;2.95;;;21.00;97.10;;;;;;4974955;28;20042;-79
2021/08/31 01:07:18;;;;;;;5.13;2.85;;;20.90;97.10;;;;;;4974311;28;20084;-79
2021/08/31 01:09:45;;;;;;;7.07;2.80;;;20.90;97.10;;;;;;4975089;28;20082;-79
2021/08/31 01:12:11;;;;;;;5.47;2.85;;;20.90;97.10;;;;;;4958555;28;20035;-85
2021/08/31 01:14:37;;;;;;;5.82;2.70;;;20.90;97.10;;;;;;4975689;28;20494;-79
2021/08/31 01:17:03;;;;;;;5.47;2.65;;;20.90;97.00;;;;;;4974774;28;20039;-84
2021/08/31 01:19:31;;;;;;;6.72;2.47;;;20.90;97.00;;;;;;4974838;28;20037;-83
2021/08/31 01:22:03;;;;;;;6.95;2.80;;;20.90;97.00;;;;;;4974483;28;20482;-81
2021/08/31 01:24:30;;;;;;;6.00;2.95;;;20.90;97.00;;;;;;4975235;28;20460;-83
2021/08/31 01:26:58;;;;;;;6.97;2.97;;;20.90;97.10;;;;;;4974748;28;20467;-82
2021/08/31 01:29:24;;;;;;;5.60;2.85;;;20.90;97.10;;;;;;4974647;28;20054;-76
2021/08/31 01:31:50;;;;;;;4.70;2.40;;;20.90;97.10;;;;;;4973975;28;20034;-78
2021/08/31 01:34:15;;;;;;;4.45;2.53;;;20.90;97.00;;;;;;4974931;28;20037;-86
2021/08/31 01:36:41;;;;;;;6.38;2.85;;;20.90;97.00;;;;;;4972947;28;20121;-80
2021/08/31 01:39:07;;;;;;;5.45;2.90;;;20.90;97.00;;;;;;4973825;28;20030;-83
2021/08/31 01:41:32;;;;;;;5.72;2.97;;;20.90;97.00;;;;;;4973917;28;20035;-84
2021/08/31 01:43:58;;;;;;;6.63;2.80;;;20.90;97.00;;;;;;4974084;28;20023;-82
2021/08/31 01:46:23;;;;;;;6.70;2.78;;;20.90;97.00;;;;;;4974284;28;20399;-81
2021/08/31 01:48:49;;;;;;;5.85;2.67;;;20.90;97.00;;;;;;4974263;28;20039;-80
2021/08/31 01:51:15;;;;;;;5.03;2.67;;;20.90;97.00;;;;;;4973735;28;20059;-83
2021/08/31 01:53:40;;;;;;;6.32;3.08;;;20.90;97.00;;;;;;4974503;28;20027;-73
2021/08/31 01:56:06;;;;;;;6.10;2.40;;;20.90;97.00;;;;;;4974571;28;20027;-77
2021/08/31 01:58:32;;;;;;;5.43;2.88;;;20.90;96.90;;;;;;4973043;28;20492;-77
2021/08/31 02:00:58;;;;;;;5.57;2.97;;;20.90;96.90;;;;;;4973511;28;20038;-80
2021/08/31 02:03:24;;;;;;;7.22;2.78;;;20.90;96.90;;;;;;4973869;28;20403;-77
2021/08/31 02:05:49;;;;;;;5.20;2.72;;;20.90;96.90;;;;;;4973217;28;20030;-80
2021/08/31 02:08:15;;;;;;;5.72;2.67;;;20.80;96.90;;;;;;4974003;28;20026;-83
2021/08/31 02:10:42;;;;;;;7.45;3.22;;;20.90;96.90;;;;;;4974529;28;20499;-73
2021/08/31 02:13:08;;;;;;;7.30;3.20;;;20.90;96.90;;;;;;4974273;28;20475;-83
2021/08/31 02:15:34;;;;;;;6.28;2.92;;;20.90;96.90;;;;;;4974364;28;20111;-86
2021/08/31 02:18:00;;;;;;;5.38;2.90;;;20.80;96.90;;;;;;4973871;28;20537;-77
2021/08/31 02:20:25;;;;;;;5.50;2.67;;;20.80;96.90;;;;;;4973746;28;20022;-86
2021/08/31 02:22:51;;;;;;;4.35;2.38;;;20.80;96.90;;;;;;4973899;28;20031;-83
2021/08/31 02:25:17;;;;;;;6.65;3.00;;;20.80;96.90;;;;;;4974113;28;20025;-85
2021/08/31 02:27:43;;;;;;;5.88;2.65;;;20.80;96.80;;;;;;4973949;28;20474;-83
2021/08/31 02:30:09;;;;;;;5.63;2.60;;;20.80;96.90;;;;;;4973107;28;20570;-86
2021/08/31 02:32:35;;;;;;;4.53;2.63;;;20.80;96.80;;;;;;4973181;28;20031;-84
2021/08/31 02:35:01;;;;;;;5.75;2.50;;;20.90;96.80;;;;;;4973928;28;20422;-86
2021/08/31 02:37:26;;;;;;;7.82;3.33;;;20.80;96.80;;;;;;4973333;28;20043;-84
2021/08/31 02:39:53;;;;;;;6.55;2.55;;;20.80;96.80;;;;;;4973924;28;20070;-75
2021/08/31 02:42:18;;;;;;;7.43;3.25;;;20.80;96.80;;;;;;4973474;28;20495;-82
2021/08/31 02:44:44;;;;;;;4.22;2.30;;;20.80;96.70;;;;;;4973212;28;20035;-88
2021/08/31 02:47:09;;;;;;;4.45;2.70;;;20.80;96.70;;;;;;4973790;28;20118;-79
2021/08/31 02:49:35;;;;;;;5.47;2.90;;;20.80;96.70;;;;;;4973240;28;20023;-82
2021/08/31 02:52:01;;;;;;;7.25;3.45;;;20.80;96.70;;;;;;4973065;28;20038;-78
2021/08/31 02:54:27;;;;;;;5.25;2.72;;;20.80;96.70;;;;;;4973594;28;20054;-74
2021/08/31 02:56:52;;;;;;;5.32;2.38;;;20.80;96.70;;;;;;4955979;28;20426;-82
2021/08/31 02:59:18;;;;;;;6.78;2.80;;;20.80;96.70;;;;;;4955725;28;20031;-80
2021/08/31 03:04:28;;;;;;;5.72;3.25;;;20.80;96.70;;;;;;4962021;28;20518;-83
2021/08/31 03:06:54;;;;;;;7.72;3.25;;;20.80;96.70;;;;;;4972337;28;20051;-77
2021/08/31 03:09:19;;;;;;;4.95;2.55;;;20.80;96.70;;;;;;4973372;28;20068;-77
2021/08/31 03:11:45;;;;;;;5.30;2.53;;;20.80;96.70;;;;;;4972559;28;20479;-79
2021/08/31 03:14:11;;;;;;;5.93;2.35;;;20.80;96.70;;;;;;4972613;28;20132;-73
2021/08/31 03:16:36;;;;;;;7.78;2.90;;;20.80;96.70;;;;;;4972803;28;20051;-81
2021/08/31 03:19:02;;;;;;;7.20;3.10;;;20.80;96.70;;;;;;4972753;28;20023;-77
2021/08/31 03:21:29;;;;;;;5.72;2.90;;;20.80;96.60;;;;;;4973049;28;20062;-79
2021/08/31 03:23:55;;;;;;;4.78;2.72;;;20.80;96.90;;;;;;4973054;28;20022;-82
2021/08/31 03:26:21;;;;;;;5.85;2.90;;;20.80;96.60;;;;;;4971910;28;20030;-86
2021/08/31 03:28:46;;;;;;;7.55;3.15;;;20.80;96.60;;;;;;4973177;28;20065;-77
2021/08/31 03:31:12;;;;;;;5.88;3.10;;;20.80;96.60;;;;;;4972459;28;20376;-81
2021/08/31 03:33:37;;;;;;;4.82;2.83;;;20.80;96.60;;;;;;4973011;28;20031;-82
2021/08/31 03:36:05;;;;;;;4.47;3.03;;;20.80;96.60;;;;;;4973032;28;20031;-78
2021/08/31 03:38:31;;;;;;;4.97;3.15;;;20.80;96.60;;;;;;4972858;28;20122;-80
2021/08/31 03:40:57;;;;;;;6.15;3.08;;;20.70;96.50;;;;;;4972971;28;20093;-80
2021/08/31 03:43:22;;;;;;;5.65;3.13;;;20.70;96.50;;;;;;4972154;28;20078;-85
2021/08/31 03:45:48;;;;;;;7.30;3.28;;;20.70;96.50;;;;;;4972046;28;20105;-78
2021/08/31 03:48:14;;;;;;;5.90;3.25;;;20.80;96.50;;;;;;4972214;28;20101;-87
2021/08/31 03:50:39;;;;;;;6.45;3.28;;;20.70;96.50;;;;;;4973238;28;20116;-78
2021/08/31 03:53:05;;;;;;;6.30;3.10;;;20.70;96.50;;;;;;4972414;28;20019;-78
2021/08/31 03:55:31;;;;;;;6.22;3.00;;;20.70;96.50;;;;;;4972513;28;20035;-82
2021/08/31 03:57:56;;;;;;;5.85;3.03;;;20.70;96.50;;;;;;4972081;28;20074;-80
2021/08/31 04:00:22;;;;;;;4.15;2.65;;;20.70;96.40;;;;;;4975595;28;20033;-87
2021/08/31 04:02:48;;;;;;;6.03;3.05;;;20.70;96.40;;;;;;4976158;28;20044;-81
2021/08/31 04:05:13;;;;;;;5.05;3.13;;;20.70;96.40;;;;;;4976227;28;20030;-82
2021/08/31 04:07:39;;;;;;;6.00;3.53;;;20.70;96.40;;;;;;4977127;28;20490;-86
2021/08/31 04:10:05;;;;;;;5.75;2.70;;;20.70;96.40;;;;;;4976944;28;20038;-87
2021/08/31 04:12:31;;;;;;;6.15;3.15;;;20.70;96.40;;;;;;4976047;28;20510;-79
2021/08/31 04:14:57;;;;;;;5.65;3.08;;;20.70;96.70;;;;;;4976282;28;20058;-88
2021/08/31 04:17:22;;;;;;;5.57;2.75;;;20.70;96.40;;;;;;4975605;28;20042;-87
2021/08/31 04:19:48;;;;;;;9.80;3.25;;;20.70;96.40;;;;;;4959427;28;20032;-82
2021/08/31 04:22:13;;;;;;;5.80;3.10;;;20.70;96.40;;;;;;4975893;28;20109;-80
2021/08/31 04:24:39;;;;;;;5.93;3.17;;;20.70;96.40;;;;;;4976720;28;20561;-86
2021/08/31 04:27:05;;;;;;;3.90;2.80;;;20.70;96.40;;;;;;4974832;28;20475;-82
2021/08/31 04:29:30;;;;;;;5.15;3.25;;;20.70;96.30;;;;;;4975988;28;20494;-82
2021/08/31 04:31:56;;;;;;;5.65;3.17;;;20.70;96.40;;;;;;4976053;28;20033;-86
2021/08/31 04:34:22;;;;;;;5.68;3.50;;;20.70;96.30;;;;;;4976079;28;20027;-83
2021/08/31 04:36:47;;;;;;;5.88;3.08;;;20.70;96.30;;;;;;4975381;28;20082;-78
2021/08/31 04:39:13;;;;;;;6.75;3.25;;;20.70;96.30;;;;;;4976119;28;20093;-73
2021/08/31 04:41:39;;;;;;;3.53;2.42;;;20.70;96.30;;;;;;4976190;28;20035;-80
2021/08/31 04:44:04;;;;;;;6.03;3.22;;;20.70;96.30;;;;;;4975206;28;20455;-85
2021/08/31 04:46:30;;;;;;;6.13;3.13;;;20.70;96.30;;;;;;4974328;28;20034;-80
2021/08/31 04:48:56;;;;;;;5.35;3.15;;;20.60;96.20;;;;;;4975676;28;20029;-80
2021/08/31 04:51:22;;;;;;;5.35;2.72;;;20.60;96.20;;;;;;4975603;28;20034;-82
2021/08/31 04:53:47;;;;;;;5.97;3.53;;;20.60;96.20;;;;;;4975690;28;20022;-83
2021/08/31 04:56:13;;;;;;;7.53;3.50;;;20.60;96.20;;;;;;4975668;28;20023;-83
2021/08/31 04:58:38;;;;;;;6.68;3.35;;;20.60;96.20;;;;;;4975585;28;20038;-83
2021/08/31 05:01:04;;;;;;;6.47;3.40;;;20.60;96.20;;;;;;4975361;28;20085;-86
2021/08/31 05:03:30;;;;;;;5.60;3.15;;;20.60;96.20;;;;;;4975556;28;20062;-84
2021/08/31 05:05:56;;;;;;;6.45;3.13;;;20.60;96.20;;;;;;4976077;28;20065;-91
2021/08/31 05:08:21;;;;;;;5.28;2.88;;;20.60;96.20;;;;;;4975542;28;20074;-87
2021/08/31 05:10:48;;;;;;;5.43;3.15;;;20.60;96.20;;;;;;4974554;28;20038;-88
2021/08/31 05:13:14;;;;;;;5.05;3.13;;;20.60;96.10;;;;;;4974812;28;20023;-73
2021/08/31 05:15:40;;;;;;;6.60;3.30;;;20.60;96.10;;;;;;4975338;28;20031;-80
2021/08/31 05:18:06;;;;;;;5.53;3.38;;;20.60;96.10;;;;;;4975069;28;20093;-79
2021/08/31 05:20:32;;;;;;;6.22;3.33;;;20.60;96.10;;;;;;4958125;28;20023;-85
2021/08/31 05:22:59;;;;;;;5.32;3.45;;;20.60;96.10;;;;;;4975199;28;20526;-81
2021/08/31 05:25:26;;;;;;;4.93;2.83;;;20.60;96.10;;;;;;4974754;28;20088;-76
2021/08/31 05:27:53;;;;;;;5.18;3.17;;;20.60;96.00;;;;;;4974328;28;20054;-87
2021/08/31 05:30:19;;;;;;;4.53;2.90;;;20.60;96.00;;;;;;4957056;28;20027;-83
2021/08/31 05:32:44;;;;;;;6.35;3.13;;;20.60;96.00;;;;;;4975647;28;20070;-81
2021/08/31 05:35:11;;;;;;;5.30;3.15;;;20.60;96.00;;;;;;4974858;28;20027;-79
2021/08/31 05:37:37;;;;;;;7.40;3.50;;;20.60;96.00;;;;;;4974375;28;20050;-85
2021/08/31 05:40:02;;;;;;;6.30;2.92;;;20.60;96.00;;;;;;4974358;28;20542;-83
2021/08/31 05:42:28;;;;;;;5.47;3.45;;;20.60;96.00;;;;;;4973777;28;20038;-85
2021/08/31 05:44:54;;;;;;;6.13;3.28;;;20.60;96.00;;;;;;4969525;28;20023;-87
2021/08/31 05:47:19;;;;;;;4.93;3.13;;;20.60;95.90;;;;;;4974179;28;21629;-81
2021/08/31 05:49:45;;;;;;;4.63;2.83;;;20.60;95.90;;;;;;4974886;28;20106;-74
2021/08/31 05:52:12;;;;;;;6.78;3.60;;;20.60;95.90;;;;;;4974245;28;20066;-83
2021/08/31 05:54:38;;;;;;;5.88;3.22;;;20.60;95.90;;;;;;4974122;28;20027;-82
2021/08/31 05:57:09;;;;;;;6.97;3.38;;;20.50;95.90;;;;;;4959263;28;20046;-80
2021/08/31 05:59:35;;;;;;;6.15;3.50;;;20.60;95.90;;;;;;4977685;28;20022;-80
2021/08/31 06:02:01;;;;;;;5.10;3.35;;;20.50;95.80;;;;;;4973693;28;20050;-75
2021/08/31 06:04:26;;;;;;;5.70;3.60;;;20.60;95.80;;;;;;4972856;28;20442;-81
2021/08/31 06:06:52;;;;;;;4.93;2.70;;;20.60;95.80;;;;;;4974323;28;20031;-80
2021/08/31 06:09:18;;;;;;;6.78;3.47;;;20.60;95.80;;;;;;4973986;28;20108;-78
2021/08/31 06:11:44;;;;;;;6.65;3.58;;;20.50;95.90;;;;;;4974189;28;20023;-76
2021/08/31 06:14:10;;;;;;;7.05;3.80;;;20.50;95.90;;;;;;4973035;28;20022;-74
2021/08/31 06:16:36;;;;;;;7.30;3.58;;;20.50;95.80;;;;;;4955416;28;20358;-88
2021/08/31 06:19:02;;;;;;;6.70;3.25;;;20.50;95.90;;;;;;4973443;28;20031;-87
2021/08/31 06:21:28;;;;;;;7.43;3.88;;;20.60;95.90;;;;;;4973121;28;20029;-78
2021/08/31 06:23:54;;;;;;;6.53;3.75;;;20.50;96.10;;;;;;4972313;28;20042;-75
2021/08/31 06:26:19;;;;;;;6.68;3.53;;;20.50;96.10;;;;;;4973936;28;20027;-88
2021/08/31 06:28:45;;;;;;;6.63;4.25;;;20.60;96.30;;;;;;4974769;28;20041;-77
2021/08/31 06:31:11;;;;;;;9.40;4.00;;;20.60;96.40;;;;;;4970095;28;20023;-74
2021/08/31 06:33:36;;;;;;;6.03;4.10;;;20.60;96.50;;;;;;4973849;28;20034;-84
2021/08/31 06:36:02;;;;;;;9.25;3.53;;;20.60;96.50;;;;;;4973876;28;20023;-85
2021/08/31 06:38:27;;;;;;;6.32;3.65;;;20.60;96.60;;;;;;4973501;28;20069;-85
2021/08/31 06:40:53;;;;;;;6.95;3.25;;;20.60;96.60;;;;;;4973642;28;20030;-83
2021/08/31 06:43:19;;;;;;;4.82;3.03;;;20.60;96.60;;;;;;4973613;28;20510;-87
2021/08/31 06:45:45;;;;;;;12.23;4.25;;;20.60;96.70;;;;;;4973979;28;20029;-79
2021/08/31 06:48:11;;;;;;;6.88;3.55;;;20.60;96.70;;;;;;4973409;28;20027;-82
2021/08/31 06:50:36;;;;;;;6.97;3.83;;;20.60;96.70;;;;;;4973258;28;20033;-77
2021/08/31 06:53:02;;;;;;;6.38;3.45;;;20.70;96.60;;;;;;4973000;28;20034;-83
2021/08/31 06:55:28;;;;;;;9.50;3.65;;;20.60;97.00;;;;;;4972651;28;20023;-74
2021/08/31 06:57:54;;;;;;;6.78;3.50;;;20.70;97.00;;;;;;4972300;28;20099;-76
2021/08/31 07:00:20;;;;;;;6.35;3.53;;;20.70;96.90;;;;;;4972769;28;20372;-78
2021/08/31 07:02:46;;;;;;;8.82;3.50;;;20.70;96.80;;;;;;4973233;28;20505;-77
2021/08/31 07:05:12;;;;;;;5.57;3.30;;;20.70;96.70;;;;;;4972690;28;20023;-78
2021/08/31 07:07:37;;;;;;;5.95;3.50;;;20.70;96.70;;;;;;4972879;28;20101;-78
2021/08/31 07:10:04;;;;;;;7.32;4.55;;;20.70;96.70;;;;;;4972685;28;20027;-74
2021/08/31 07:12:30;;;;;;;6.38;3.58;;;20.70;96.60;;;;;;4972496;28;20030;-74
2021/08/31 07:14:57;;;;;;;8.98;3.85;;;20.70;96.70;;;;;;4972106;28;20073;-78
2021/08/31 07:17:23;;;;;;;7.30;3.85;;;20.70;96.70;;;;;;4970545;28;20032;-77
2021/08/31 07:19:49;;;;;;;9.20;4.15;;;20.70;96.60;;;;;;4972619;28;20496;-76
2021/08/31 07:22:17;;;;;;;7.05;3.75;;;20.70;96.70;;;;;;4972634;28;20023;-79
2021/08/31 07:24:42;;;;;;;7.25;3.88;;;20.70;96.60;;;;;;4972655;28;20026;-77
2021/08/31 07:27:08;;;;;;;5.72;4.05;;;20.70;96.60;;;;;;4972668;28;20031;-74
2021/08/31 07:29:34;;;;;;;7.85;4.10;;;20.70;96.60;;;;;;4972635;28;20033;-77
2021/08/31 07:31:59;;;;;;;7.68;3.88;;;20.70;96.50;;;;;;4972597;28;20031;-74
2021/08/31 07:34:25;;;;;;;9.05;4.00;;;20.70;96.50;;;;;;4970730;28;20384;-75
2021/08/31 07:36:51;;;;;;;9.15;4.15;;;20.70;96.50;;;;;;4971127;28;20180;-73
2021/08/31 07:39:17;;;;;;;8.23;4.10;;;20.70;96.50;;;;;;4972576;28;20019;-74
2021/08/31 07:41:42;;;;;;;8.10;3.80;;;20.70;96.50;;;;;;4971869;28;20039;-73
2021/08/31 07:44:08;;;;;;;9.23;3.97;;;20.70;96.50;;;;;;4972425;28;20026;-74
2021/08/31 07:46:33;;;;;;;8.82;4.25;;;20.70;96.50;;;;;;4972203;28;20023;-76
2021/08/31 07:48:59;;;;;;;6.57;4.03;;;20.70;96.50;;;;;;4972417;28;20217;-73
2021/08/31 07:51:25;;;;;;;10.85;3.90;;;20.70;96.50;;;;;;4972226;28;20047;-77
2021/08/31 07:53:51;;;;;;;7.97;4.57;;;20.70;96.40;;;;;;4972273;28;20058;-74
2021/08/31 07:56:17;;;;;;;7.78;3.95;;;20.70;96.40;;;;;;4954991;28;20553;-73
2021/08/31 07:58:43;;;;;;;7.53;4.22;;;20.70;96.40;;;;;;4972304;28;20110;-81
2021/08/31 08:01:08;;;;;;;7.80;4.00;;;20.70;96.40;;;;;;4970568;28;20106;-82
2021/08/31 08:03:34;;;;;;;7.43;4.80;;;20.70;96.40;;;;;;4953915;28;20030;-82
2021/08/31 08:06:00;;;;;;;7.13;4.10;;;20.70;96.40;;;;;;4972147;28;20078;-78
2021/08/31 08:08:25;;;;;;;8.13;4.38;;;20.70;96.30;;;;;;4971930;28;20479;-77
2021/08/31 08:10:51;;;;;;;8.25;4.47;;;20.70;96.30;;;;;;4972211;28;20022;-83
2021/08/31 08:13:18;;;;;;;6.95;4.35;;;20.70;96.30;;;;;;4972159;28;20049;-82
2021/08/31 08:15:44;;;;;;;6.20;3.92;;;20.70;96.20;;;;;;4971738;28;20551;-82
2021/08/31 08:18:10;;;;;;;7.00;4.40;;;20.80;96.30;;;;;;4971771;28;20118;-81
2021/08/31 08:20:35;;;;;;;6.90;4.72;;;20.70;96.20;;;;;;4972085;28;20105;-81
2021/08/31 08:23:01;;;;;;;8.52;5.15;;;20.80;96.20;;;;;;4972300;28;20475;-81
2021/08/31 08:25:27;;;;;;;7.10;4.63;;;20.80;96.10;;;;;;4971794;28;20026;-81
2021/08/31 08:27:52;;;;;;;8.60;4.90;;;20.70;96.40;;;;;;4972017;28;20023;-77
2021/08/31 08:30:18;;;;;;;8.00;4.68;;;20.80;96.10;;;;;;4954656;28;20057;-78
2021/08/31 08:32:44;;;;;;;7.03;4.60;;;20.80;96.00;;;;;;4972005;28;20120;-83
2021/08/31 08:35:12;;;;;;;6.10;4.13;;;20.80;96.00;;;;;;4954375;28;20030;-79
2021/08/31 08:37:38;;;;;;;7.32;4.25;;;20.80;96.00;;;;;;4954496;28;20042;-82
2021/08/31 08:40:05;;;;;;;5.72;4.15;;;20.80;96.00;;;;;;4971894;28;20015;-81
2021/08/31 08:42:31;;;;;;;5.95;3.60;;;20.80;96.00;;;;;;4954247;28;20050;-83
2021/08/31 08:44:57;;;;;;;7.38;4.32;;;20.70;96.00;;;;;;4972641;28;20019;-81
2021/08/31 08:47:22;;;;;;;8.70;3.65;;;20.80;96.00;;;;;;4975308;28;20505;-82
2021/08/31 08:49:49;;;;;;;7.00;4.68;;;20.80;95.90;;;;;;4975691;28;20435;-81
2021/08/31 08:52:16;;;;;;;7.22;4.65;;;20.80;95.90;;;;;;4975186;28;20023;-76
2021/08/31 08:54:42;;;;;;;9.25;4.90;;;20.80;95.90;;;;;;4975271;28;20479;-81
2021/08/31 08:57:09;;;;;;;7.28;4.40;;;20.80;95.90;;;;;;4975224;28;20487;-77
2021/08/31 08:59:38;;;;;;;7.93;4.53;;;20.80;95.90;;;;;;4975242;28;20558;-80
2021/08/31 09:02:04;;;;;;;6.22;4.82;;;20.80;95.90;;;;;;4975223;28;20027;-76
2021/08/31 09:04:48;;;;;;;5.97;5.07;;;20.80;95.90;;;;;;4974810;28;20034;-75
2021/08/31 09:07:22;;;;;;;7.10;5.25;;;20.80;95.90;;;;;;4974860;28;20030;-78
2021/08/31 09:10:10;;;;;;;8.30;4.70;;;20.90;95.90;;;;;;4974400;28;20383;-79
2021/08/31 09:12:36;;;;;;;7.22;4.32;;;20.90;95.90;;;;;;4974731;28;20058;-74
2021/08/31 09:15:21;;;;;;;7.60;4.88;;;20.90;95.80;;;;;;4974274;28;20065;-80
2021/08/31 09:18:06;;;;;;;6.97;5.07;;;20.90;95.80;;;;;;4957459;28;20045;-81
2021/08/31 09:20:32;;;;;;;6.15;4.70;;;20.90;95.80;;;;;;4974119;28;20058;-77
2021/08/31 09:22:58;;;;;;;7.07;5.03;;;20.90;95.70;;;;;;4973743;28;20030;-76
2021/08/31 09:25:55;;;;;;;6.10;4.60;;;20.90;95.70;;;;;;4956799;28;20030;-80
2021/08/31 09:28:25;;;;;;;;;;;20.90;95.70;;;;;;4974418;28;20052;-76
2021/08/31 09:31:00;;;;;;;6.47;4.70;;;21.00;95.70;;;;;;4975068;28;19906;-75
2021/08/31 09:33:29;;;;;;;7.60;5.53;;;21.00;95.60;;;;;;4973831;28;20030;-83
2021/08/31 09:36:07;;;;;;;7.13;5.30;;;21.00;95.60;;;;;;4972524;28;20031;-79
2021/08/31 09:39:13;;;;;;;6.40;4.90;;;21.00;95.60;;;;;;4955964;28;20031;-89
2021/08/31 09:41:46;;;;;;;7.00;5.18;;;21.00;95.50;;;;;;4972439;28;20062;-89
2021/08/31 09:44:13;;;;;;;6.72;5.15;;;21.00;95.50;;;;;;4994008;28;20038;-81
2021/08/31 09:46:56;;;;;;;7.38;5.65;;;21.00;95.50;;;;;;4994301;28;20061;-87
2021/08/31 09:49:32;;;;;;;12.27;6.40;;;21.10;95.50;;;;;;4993337;28;20029;-88
2021/08/31 09:51:58;;;;;;;10.25;6.82;;;21.10;95.40;;;;;;4994854;28;20366;-88
2021/08/31 09:54:23;;;;;;;8.55;5.80;;;21.10;95.40;;;;;;4992966;28;20038;-80
2021/08/31 09:56:49;;;;;;;7.88;5.65;;;21.10;95.40;;;;;;4993507;28;20097;-74
2021/08/31 09:59:16;;;;;;;9.38;6.25;;;21.10;95.40;;;;;;4993610;28;20035;-76
2021/08/31 10:01:42;;;;;;;7.93;5.93;;;21.10;95.40;;;;;;4993690;28;20502;-80
2021/08/31 10:04:07;;;;;;;8.18;5.60;;;21.20;95.40;;;;;;4993648;28;20030;-79
2021/08/31 10:06:33;;;;;;;8.18;5.63;;;21.20;95.30;;;;;;4993597;28;20437;-82
2021/08/31 10:08:59;;;;;;;6.45;5.28;;;21.20;95.30;;;;;;4993644;28;20030;-84
2021/08/31 10:11:25;;;;;;;10.23;5.70;;;21.20;95.20;;;;;;4993895;28;20097;-84
2021/08/31 10:13:53;;;;;;;9.32;5.28;;;21.20;95.20;;;;;;4994354;28;20030;-84
2021/08/31 10:16:22;;;;;;;7.05;4.80;;;21.20;95.10;;;;;;4993453;28;20019;-82
2021/08/31 10:18:48;;;;;;;7.57;5.07;;;21.30;95.10;;;;;;4976275;28;20177;-87
2021/08/31 10:21:15;;;;;;;7.78;5.55;;;21.30;95.10;;;;;;4993497;28;20057;-90
2021/08/31 10:23:48;;;;;;;10.48;6.30;;;21.30;95.10;;;;;;4993568;28;20027;-85
2021/08/31 10:26:22;;;;;;;7.95;5.68;;;21.30;95.00;;;;;;4993392;28;20382;-89
2021/08/31 10:28:49;;;;;;;7.20;5.00;;;21.30;95.00;;;;;;4993488;28;20030;-87
2021/08/31 10:31:31;;;;;;;8.07;5.47;;;21.30;95.00;;;;;;4993260;28;20069;-81
2021/08/31 10:33:57;;;;;;;9.00;6.13;;;21.40;95.10;;;;;;4993410;28;20030;-85
2021/08/31 10:36:37;;;;;;;8.02;5.60;;;21.30;95.20;;;;;;4993233;28;20053;-88
2021/08/31 10:39:07;;;;;;;9.93;6.20;;;21.40;95.40;;;;;;4993627;28;20038;-91
2021/08/31 10:41:47;;;;;;;6.10;5.13;;;21.40;95.50;;;;;;4993113;28;20431;-87
2021/08/31 10:44:34;;;;;;;8.85;5.20;;;21.40;95.50;;;;;;4993171;28;20030;-88
2021/08/31 10:47:05;;;;;;;8.07;5.32;;;21.40;95.70;;;;;;4993188;28;20069;-90
2021/08/31 10:49:31;;;;;;;6.47;5.00;;;21.40;95.70;;;;;;4992994;28;20018;-87
2021/08/31 10:52:07;;;;;;;6.18;5.32;;;21.40;95.70;;;;;;4993191;28;20109;-82
2021/08/31 10:54:47;;;;;;;7.30;5.32;;;21.50;95.80;;;;;;4992827;28;20031;-87
2021/08/31 10:57:54;;;;;;;6.72;5.40;;;21.50;95.80;;;;;;4992714;28;20038;-75
2021/08/31 11:00:20;;;;;;;7.47;4.82;;;21.60;95.80;;;;;;4952549;29;20040;-90
2021/08/31 11:05:25;;;;;;;6.18;4.78;;;21.60;95.80;;;;;;4972628;28;20113;-90
2021/08/31 11:08:02;;;;;;;7.93;4.60;;;21.60;95.80;;;;;;4992863;28;20033;-88
2021/08/31 11:10:32;;;;;;;6.70;4.78;;;21.60;95.80;;;;;;4992627;28;20481;-89
2021/08/31 11:13:10;;;;;;;6.93;4.90;;;21.60;95.80;;;;;;4992831;28;20034;-88
2021/08/31 11:15:36;;;;;;;8.15;4.95;;;21.70;95.70;;;;;;4992812;28;20030;-90
2021/08/31 11:18:07;;;;;;;6.18;4.88;;;21.70;95.60;;;;;;4992793;28;20042;-92
2021/08/31 11:20:34;;;;;;;6.07;4.70;;;21.70;95.60;;;;;;4992549;28;20022;-90
2021/08/31 11:23:19;;;;;;;6.35;4.80;;;21.70;95.50;;;;;;4992770;28;20030;-92
2021/08/31 11:25:50;;;;;;;8.52;5.30;;;21.80;95.40;;;;;;4992751;28;20102;-85
2021/08/31 11:28:21;;;;;;;6.15;5.15;;;21.80;95.30;;;;;;4992215;28;20038;-79
2021/08/31 11:30:52;;;;;;;5.70;4.30;;;21.80;95.30;;;;;;4992621;28;20549;-93
2021/08/31 11:33:40;;;;;;;7.30;5.05;;;21.80;95.30;;;;;;4992319;28;20682;-93
2021/08/31 11:36:13;;;;;;;6.60;5.03;;;21.90;95.20;;;;;;4992627;28;20125;-93
2021/08/31 11:38:42;;;;;;;6.43;5.05;;;21.90;95.10;;;;;;4992493;28;20034;-93
2021/08/31 11:41:16;;;;;;;6.10;5.32;;;21.90;95.10;;;;;;4992570;28;20084;-93
2021/08/31 11:43:43;;;;;;;8.20;5.05;;;21.90;95.10;;;;;;4992655;28;20035;-92
2021/08/31 11:46:09;;;;;;;5.22;4.60;;;21.90;95.00;;;;;;4992285;28;20027;-88
2021/08/31 11:48:35;;;;;;;6.38;4.90;;;21.90;95.00;;;;;;4992763;28;20027;-93
2021/08/31 11:51:03;;;;;;;5.53;4.35;;;21.90;95.00;;;;;;4992584;28;20022;-91
2021/08/31 11:53:29;;;;;;;10.10;5.43;;;21.90;95.00;;;;;;4992726;28;20032;-75
2021/08/31 11:56:02;;;;;;;6.13;4.88;;;21.90;95.30;;;;;;4992549;28;20022;-75
2021/08/31 11:58:29;;;;;;;6.43;4.85;;;21.80;94.90;;;;;;4992262;28;20149;-83
2021/08/31 12:00:56;;;;;;;6.82;4.78;;;21.90;94.90;;;;;;4992403;28;20503;-88
2021/08/31 12:03:26;;;;;;;6.03;5.05;;;21.90;95.00;;;;;;4991866;28;20034;-86
2021/08/31 12:06:10;;;;;;;7.70;5.18;;;21.90;95.00;;;;;;4992024;28;20057;-87
2021/08/31 12:08:40;;;;;;;6.28;4.90;;;21.90;94.80;;;;;;4992107;28;20022;-84
2021/08/31 12:11:06;;;;;;;6.00;4.38;;;21.90;94.80;;;;;;4980138;28;20039;-89
2021/08/31 12:13:33;;;;;;;7.20;5.00;;;21.90;94.70;;;;;;4972903;28;20111;-87
2021/08/31 12:16:01;;;;;;;6.53;5.25;;;22.00;94.70;;;;;;4973324;28;20438;-89
2021/08/31 12:18:30;;;;;;;6.47;4.95;;;22.00;94.60;;;;;;4972855;28;20086;-91
2021/08/31 12:21:24;;;;;;;6.80;4.93;;;22.00;94.50;;;;;;4975460;28;20018;-93
2021/08/31 12:23:52;;;;;;;5.25;4.45;;;22.10;94.50;;;;;;4976519;28;20443;-93
2021/08/31 12:26:36;;;;;;;6.55;4.15;;;22.10;94.40;;;;;;4976314;28;20042;-93
2021/08/31 12:29:10;;;;;;;6.07;4.70;;;22.10;94.30;;;;;;4976806;28;20073;-90
2021/08/31 12:31:36;;;;;;;8.20;5.00;;;22.10;94.20;;;;;;4976906;28;20395;-93
2021/08/31 12:34:23;;;;;;;5.55;4.70;;;22.10;94.20;;;;;;4976795;28;20282;-90
2021/08/31 12:36:49;;;;;;;6.57;5.07;;;22.10;94.10;;;;;;4975434;28;20049;-77
2021/08/31 12:39:24;;;;;;;5.82;4.88;;;22.20;94.10;;;;;;4974441;28;20026;-92
2021/08/31 12:41:50;;;;;;;5.97;4.93;;;22.20;94.00;;;;;;4976113;28;20030;-92
2021/08/31 12:44:18;;;;;;;6.50;4.90;;;22.20;93.90;;;;;;4976031;28;20031;-89
2021/08/31 12:46:44;;;;;;;7.00;5.13;;;22.20;93.90;;;;;;4976178;28;20391;-87
2021/08/31 12:49:13;;;;;;;4.15;3.75;;;22.20;93.90;;;;;;4975754;28;20034;-87
2021/08/31 12:51:44;;;;;;;9.15;4.55;;;22.20;93.90;;;;;;4975424;28;20034;-89
2021/08/31 12:54:28;;;;;;;5.82;4.50;;;22.20;93.80;;;;;;4975326;28;20031;-80
2021/08/31 12:56:57;;;;;;;5.38;4.45;;;22.20;93.80;;;;;;4975629;28;20058;-91